Time;durP1;ratioP1;P1;durP2;ratioP2;P2;SDS_P1;SDS_P2;PMS_P1;PMS_P2;Temp;Humidity;BMP_temperature;BMP_pressure;BME280_temperature;BME280_humidity;BME280_pressure;Samples;Min_cycle;Max_cycle;Signal;HPM_P1;HPM_P2
2023/08/17 00:02:37;;;;;;;6.55;2.10;;;20.90;99.90;;;;;;4974630;28;20121;-71
2023/08/17 00:05:23;;;;;;;2.65;1.35;;;20.90;99.90;;;;;;4988331;28;20073;-71
2023/08/17 00:08:09;;;;;;;2.75;1.50;;;20.90;99.90;;;;;;4985109;28;20038;-71
2023/08/17 00:10:55;;;;;;;4.35;1.58;;;20.90;99.90;;;;;;4960782;28;20415;-71
2023/08/17 00:13:41;;;;;;;6.20;1.58;;;20.90;99.90;;;;;;4968388;28;20046;-71
2023/08/17 00:16:27;;;;;;;6.53;2.05;;;20.90;99.90;;;;;;4969029;28;20108;-71
2023/08/17 00:19:13;;;;;;;4.97;1.52;;;20.90;99.90;;;;;;4991953;28;20038;-71
2023/08/17 00:21:59;;;;;;;6.13;2.05;;;20.90;99.90;;;;;;4971276;28;20081;-71
2023/08/17 00:24:45;;;;;;;4.78;1.63;;;20.90;99.90;;;;;;4969986;28;20047;-71
2023/08/17 00:27:34;;;;;;;8.38;1.70;;;21.00;99.90;;;;;;4984327;28;20395;-71
2023/08/17 00:30:20;;;;;;;5.88;2.10;;;21.00;99.90;;;;;;4971105;28;20038;-71
2023/08/17 00:33:06;;;;;;;4.55;1.52;;;20.90;99.90;;;;;;4969704;28;20045;-71
2023/08/17 00:35:52;;;;;;;4.95;1.73;;;21.00;99.90;;;;;;4976930;28;20057;-71
2023/08/17 00:38:38;;;;;;;4.00;1.70;;;21.00;99.90;;;;;;4960114;28;20039;-72
2023/08/17 00:41:24;;;;;;;4.25;1.75;;;21.00;99.90;;;;;;4976362;28;20505;-72
2023/08/17 00:44:10;;;;;;;4.05;1.40;;;21.00;99.90;;;;;;4974889;28;20066;-72
2023/08/17 00:46:56;;;;;;;5.45;2.20;;;20.90;99.90;;;;;;4946501;28;20042;-72
2023/08/17 00:49:42;;;;;;;7.93;2.47;;;20.90;99.90;;;;;;4970246;28;20047;-72
2023/08/17 00:52:28;;;;;;;3.83;1.85;;;20.90;99.90;;;;;;4991429;28;20046;-72
2023/08/17 00:55:14;;;;;;;5.43;2.00;;;20.90;99.90;;;;;;4973064;28;20388;-72
2023/08/17 00:58:01;;;;;;;3.15;1.63;;;20.90;99.90;;;;;;4960343;28;20094;-72
2023/08/17 01:00:47;;;;;;;5.88;2.45;;;20.90;99.90;;;;;;4963351;28;20125;-72
2023/08/17 01:03:33;;;;;;;8.27;2.10;;;20.90;99.90;;;;;;4969855;28;20042;-72
2023/08/17 01:06:19;;;;;;;5.82;2.00;;;20.90;99.90;;;;;;4973163;28;20129;-72
2023/08/17 01:09:05;;;;;;;7.43;2.28;;;20.90;99.90;;;;;;4958508;28;20145;-72
2023/08/17 01:12:17;;;;;;;5.10;2.05;;;20.90;99.90;;;;;;4967692;28;20129;-72
2023/08/17 01:15:10;;;;;;;6.60;2.38;;;20.90;99.90;;;;;;4970581;28;20341;-72
2023/08/17 01:18:11;;;;;;;6.43;2.20;;;20.80;99.90;;;;;;4979396;28;20038;-72
2023/08/17 01:20:57;;;;;;;5.85;2.40;;;20.80;99.90;;;;;;4973663;28;20034;-72
2023/08/17 01:23:46;;;;;;;7.40;2.50;;;20.80;99.90;;;;;;4954692;28;20042;-72
2023/08/17 01:26:32;;;;;;;8.65;3.03;;;20.80;99.90;;;;;;4960740;28;20039;-72
2023/08/17 01:29:18;;;;;;;9.82;2.95;;;20.80;99.90;;;;;;4973988;28;20046;-72
2023/08/17 01:32:09;;;;;;;7.50;2.78;;;20.80;99.90;;;;;;4962254;28;20052;-72
2023/08/17 01:35:01;;;;;;;5.65;2.75;;;20.70;99.90;;;;;;4963051;28;20506;-72
2023/08/17 01:37:48;;;;;;;6.22;2.55;;;20.70;99.90;;;;;;4959667;28;20141;-70
2023/08/17 01:40:34;;;;;;;4.40;2.50;;;20.70;99.90;;;;;;4981017;28;20041;-71
2023/08/17 01:43:20;;;;;;;7.50;2.90;;;20.60;99.90;;;;;;4962921;28;20118;-70
2023/08/17 01:46:07;;;;;;;4.68;2.85;;;20.50;99.90;;;;;;4978722;28;20045;-70
2023/08/17 01:48:53;;;;;;;6.05;2.88;;;20.10;99.90;;;;;;4992435;28;20046;-70
2023/08/17 01:51:39;;;;;;;10.05;4.07;;;20.00;99.90;;;;;;4972454;28;20038;-70
2023/08/17 01:54:25;;;;;;;7.30;3.65;;;19.90;99.90;;;;;;4982936;28;20042;-70
2023/08/17 01:57:11;;;;;;;6.82;3.47;;;19.80;99.90;;;;;;4964103;28;20129;-70
2023/08/17 01:59:57;;;;;;;7.15;3.45;;;19.80;99.90;;;;;;4966057;28;20089;-71
2023/08/17 02:02:43;;;;;;;7.38;4.05;;;19.90;99.90;;;;;;4974401;28;20043;-71
2023/08/17 02:05:29;;;;;;;10.30;4.38;;;20.00;99.90;;;;;;4977267;28;20379;-70
2023/08/17 02:08:15;;;;;;;6.97;3.75;;;19.90;99.90;;;;;;4969960;28;20382;-70
2023/08/17 02:11:01;;;;;;;9.90;4.25;;;19.90;99.90;;;;;;4967842;28;20047;-70
2023/08/17 02:13:46;;;;;;;10.25;4.10;;;20.00;99.90;;;;;;4978592;28;20043;-70
2023/08/17 02:16:32;;;;;;;8.60;4.45;;;20.00;99.90;;;;;;4969310;28;20546;-70
2023/08/17 02:19:18;;;;;;;9.95;4.07;;;20.00;99.90;;;;;;4968106;28;20050;-70
2023/08/17 02:22:04;;;;;;;8.82;3.10;;;20.10;99.90;;;;;;4971383;28;20780;-71
2023/08/17 02:24:50;;;;;;;7.95;3.15;;;20.10;99.90;;;;;;4984413;28;20046;-71
2023/08/17 02:27:36;;;;;;;6.75;2.88;;;20.10;99.90;;;;;;4982826;28;20042;-71
2023/08/17 02:30:22;;;;;;;7.00;2.72;;;20.20;99.90;;;;;;4988400;28;20046;-70
2023/08/17 02:33:08;;;;;;;4.03;2.17;;;20.20;99.90;;;;;;4950455;28;20100;-71
2023/08/17 02:35:54;;;;;;;9.77;3.08;;;20.20;99.90;;;;;;4977258;28;20121;-72
2023/08/17 02:38:40;;;;;;;7.93;2.60;;;20.20;99.90;;;;;;4966837;28;20055;-71
2023/08/17 02:41:26;;;;;;;5.43;1.98;;;20.20;99.90;;;;;;4963662;28;20038;-71
2023/08/17 02:44:12;;;;;;;4.55;2.15;;;20.30;99.90;;;;;;4953655;28;20043;-71
2023/08/17 02:46:58;;;;;;;3.42;1.98;;;20.30;99.90;;;;;;4960215;28;20039;-71
2023/08/17 02:49:44;;;;;;;3.80;2.15;;;20.20;99.90;;;;;;4959452;28;20876;-71
2023/08/17 02:52:30;;;;;;;5.72;2.20;;;20.20;99.90;;;;;;4964227;28;20078;-72
2023/08/17 02:55:16;;;;;;;6.13;2.83;;;20.20;99.90;;;;;;4962201;28;20058;-71
2023/08/17 02:58:02;;;;;;;6.18;2.45;;;20.20;99.90;;;;;;4960497;28;20035;-71
2023/08/17 03:00:51;;;;;;;3.70;2.33;;;20.20;99.90;;;;;;4961920;28;20039;-71
2023/08/17 03:03:37;;;;;;;5.70;2.78;;;20.20;99.90;;;;;;4956282;28;20094;-71
2023/08/17 03:06:23;;;;;;;5.05;2.70;;;20.20;99.90;;;;;;4985249;28;20129;-71
2023/08/17 03:09:09;;;;;;;5.70;2.47;;;20.20;99.90;;;;;;4974967;28;20042;-71
2023/08/17 03:11:56;;;;;;;5.55;2.33;;;20.20;99.90;;;;;;4955526;28;20110;-71
2023/08/17 03:14:41;;;;;;;5.93;2.20;;;20.10;99.90;;;;;;4982799;28;20069;-71
2023/08/17 03:17:27;;;;;;;5.10;2.50;;;20.10;99.90;;;;;;4966880;28;20043;-71
2023/08/17 03:20:13;;;;;;;4.55;2.60;;;20.10;99.90;;;;;;4968221;28;20031;-71
2023/08/17 03:22:59;;;;;;;5.35;3.08;;;20.10;99.90;;;;;;4956044;28;20039;-71
2023/08/17 03:25:45;;;;;;;6.72;3.72;;;20.10;99.90;;;;;;4956915;28;20734;-71
2023/08/17 03:28:31;;;;;;;6.97;3.10;;;20.10;99.90;;;;;;4970186;28;20051;-71
2023/08/17 03:31:17;;;;;;;5.28;3.42;;;20.10;99.90;;;;;;4984258;28;20093;-71
2023/08/17 03:34:03;;;;;;;5.40;2.95;;;20.00;99.90;;;;;;4942197;28;20055;-70
2023/08/17 03:36:50;;;;;;;4.30;2.55;;;20.00;99.90;;;;;;4958649;28;20052;-71
2023/08/17 03:39:35;;;;;;;4.97;3.20;;;20.00;99.90;;;;;;4967087;28;20054;-71
2023/08/17 03:42:23;;;;;;;4.03;2.85;;;20.00;99.90;;;;;;4963705;28;20120;-71
2023/08/17 03:45:09;;;;;;;4.43;2.53;;;19.90;99.90;;;;;;4959141;28;20050;-71
2023/08/17 03:47:55;;;;;;;6.00;2.95;;;19.90;99.90;;;;;;4966934;28;20046;-71
2023/08/17 03:50:41;;;;;;;5.60;3.00;;;19.90;99.90;;;;;;4978176;28;20043;-71
2023/08/17 03:53:27;;;;;;;7.25;3.15;;;19.90;99.90;;;;;;4974936;28;20125;-71
2023/08/17 03:56:13;;;;;;;4.95;2.85;;;19.90;99.90;;;;;;4964508;28;20047;-71
2023/08/17 03:58:59;;;;;;;5.03;2.78;;;19.90;99.90;;;;;;4988576;28;20111;-72
2023/08/17 04:01:45;;;;;;;3.35;2.45;;;19.90;99.90;;;;;;4979605;28;20039;-71
2023/08/17 04:04:31;;;;;;;4.78;2.60;;;19.90;99.90;;;;;;4960594;28;20046;-71
2023/08/17 04:07:23;;;;;;;5.60;2.95;;;19.90;99.90;;;;;;4967400;28;20644;-71
2023/08/17 04:10:09;;;;;;;4.15;2.92;;;19.90;99.90;;;;;;4991358;28;20081;-73
2023/08/17 04:12:56;;;;;;;3.42;2.53;;;19.90;99.90;;;;;;4948776;28;20038;-70
2023/08/17 04:15:42;;;;;;;2.93;2.23;;;19.90;99.90;;;;;;4960874;28;20435;-71
2023/08/17 04:18:28;;;;;;;3.75;2.60;;;19.90;99.90;;;;;;4957802;28;20074;-71
2023/08/17 04:21:14;;;;;;;3.42;2.67;;;19.90;99.90;;;;;;4976037;28;20057;-73
2023/08/17 04:24:00;;;;;;;5.38;2.70;;;19.90;99.90;;;;;;4973929;28;20053;-73
2023/08/17 04:26:46;;;;;;;4.18;3.20;;;19.90;99.90;;;;;;4978484;28;20080;-72
2023/08/17 04:29:32;;;;;;;3.78;2.78;;;19.90;99.90;;;;;;4979512;28;20054;-73
2023/08/17 04:32:18;;;;;;;3.97;2.80;;;19.90;99.90;;;;;;4978568;28;20074;-72
2023/08/17 04:35:04;;;;;;;5.10;3.10;;;19.90;99.90;;;;;;4957426;28;20050;-73
2023/08/17 04:37:50;;;;;;;5.20;3.15;;;19.90;99.90;;;;;;4982263;28;20088;-71
2023/08/17 04:40:36;;;;;;;3.78;2.92;;;19.90;99.90;;;;;;4979467;28;20084;-71
2023/08/17 04:43:23;;;;;;;3.58;2.83;;;19.90;99.90;;;;;;4951867;28;20042;-71
2023/08/17 04:46:09;;;;;;;5.03;3.05;;;19.90;99.90;;;;;;4975433;28;20448;-72
2023/08/17 04:48:55;;;;;;;3.92;2.83;;;19.90;99.90;;;;;;4986190;28;20077;-72
2023/08/17 04:51:41;;;;;;;5.45;3.42;;;19.90;99.90;;;;;;4965982;28;20048;-72
2023/08/17 04:54:27;;;;;;;4.95;3.30;;;19.90;99.90;;;;;;4979136;28;20043;-71
2023/08/17 04:57:13;;;;;;;4.78;4.00;;;19.90;99.90;;;;;;4972366;28;20042;-72
2023/08/17 04:59:59;;;;;;;5.03;2.97;;;19.90;99.90;;;;;;4965373;28;20042;-72
2023/08/17 05:02:45;;;;;;;4.38;2.92;;;19.90;99.90;;;;;;4974390;28;20035;-72
2023/08/17 05:05:31;;;;;;;5.45;3.10;;;19.90;99.90;;;;;;4961538;28;20380;-72
2023/08/17 05:08:17;;;;;;;5.78;3.80;;;19.90;99.90;;;;;;4990927;28;20046;-71
2023/08/17 05:11:03;;;;;;;6.65;3.28;;;19.90;99.90;;;;;;4970957;28;20160;-71
2023/08/17 05:13:49;;;;;;;4.72;3.63;;;19.90;99.90;;;;;;4965302;28;20121;-71
2023/08/17 05:16:35;;;;;;;5.43;3.92;;;19.90;99.90;;;;;;4977382;28;20049;-71
2023/08/17 05:19:21;;;;;;;4.35;3.33;;;19.90;99.90;;;;;;4964860;28;20105;-71
2023/08/17 05:22:11;;;;;;;4.82;3.08;;;19.80;99.90;;;;;;4990715;28;20046;-71
2023/08/17 05:24:56;;;;;;;6.00;3.40;;;19.90;99.90;;;;;;4966359;28;20057;-71
2023/08/17 05:27:42;;;;;;;3.88;3.42;;;19.90;99.90;;;;;;4978218;28;20123;-71
2023/08/17 05:30:28;;;;;;;4.88;3.35;;;19.90;99.90;;;;;;4979566;28;20035;-71
2023/08/17 05:33:16;;;;;;;6.43;3.83;;;19.90;99.90;;;;;;4987362;28;20055;-70
2023/08/17 05:36:02;;;;;;;6.10;3.92;;;19.80;99.90;;;;;;4980243;28;20049;-71
2023/08/17 05:38:48;;;;;;;5.47;4.22;;;19.90;99.90;;;;;;4956762;28;20054;-72
2023/08/17 05:41:34;;;;;;;7.13;4.32;;;19.90;99.90;;;;;;4977026;28;20053;-72
2023/08/17 05:44:21;;;;;;;6.85;3.50;;;19.80;99.90;;;;;;4990541;28;20144;-70
2023/08/17 05:47:07;;;;;;;17.05;5.75;;;19.80;99.90;;;;;;4987708;28;20046;-72
2023/08/17 05:49:53;;;;;;;12.63;4.85;;;19.80;99.90;;;;;;4971302;28;20253;-72
2023/08/17 05:52:40;;;;;;;17.85;4.72;;;19.90;99.90;;;;;;4988380;28;20046;-70
2023/08/17 05:55:25;;;;;;;10.38;4.03;;;19.80;99.90;;;;;;4985494;28;20506;-72
2023/08/17 05:58:12;;;;;;;8.70;3.90;;;19.80;99.90;;;;;;4977773;28;20490;-70
2023/08/17 06:01:06;;;;;;;14.82;4.65;;;19.80;99.90;;;;;;4938372;28;20046;-70
2023/08/17 06:03:52;;;;;;;7.47;3.92;;;19.80;99.90;;;;;;4975947;28;20356;-72
2023/08/17 06:06:37;;;;;;;7.40;3.38;;;19.80;99.90;;;;;;4989353;28;20041;-72
2023/08/17 06:09:24;;;;;;;5.53;3.08;;;19.80;99.90;;;;;;4993722;28;20050;-73
2023/08/17 06:12:11;;;;;;;5.20;3.10;;;19.80;99.90;;;;;;4989907;28;20111;-71
2023/08/17 06:14:57;;;;;;;4.70;2.70;;;19.80;99.90;;;;;;4984097;28;20062;-71
2023/08/17 06:17:43;;;;;;;4.82;2.95;;;19.80;99.90;;;;;;4951382;28;20915;-71
2023/08/17 06:20:29;;;;;;;3.58;2.63;;;19.80;99.90;;;;;;4960622;28;20077;-71
2023/08/17 06:23:15;;;;;;;6.30;2.90;;;19.80;99.90;;;;;;4957053;28;20487;-71
2023/08/17 06:26:01;;;;;;;6.95;2.65;;;19.80;99.90;;;;;;4946445;28;20066;-71
2023/08/17 06:28:47;;;;;;;4.97;2.58;;;19.80;99.90;;;;;;4976452;28;20537;-71
2023/08/17 06:31:33;;;;;;;4.93;3.00;;;19.80;99.90;;;;;;4962439;28;20060;-72
2023/08/17 06:34:21;;;;;;;3.42;2.42;;;19.70;99.90;;;;;;4974071;28;20514;-72
2023/08/17 06:37:07;;;;;;;5.38;2.83;;;19.80;99.90;;;;;;4972461;28;20073;-72
2023/08/17 06:39:53;;;;;;;3.90;2.60;;;19.80;99.90;;;;;;4974406;28;20097;-71
2023/08/17 06:42:39;;;;;;;5.10;2.85;;;19.80;99.90;;;;;;4988158;28;20499;-71
2023/08/17 06:45:25;;;;;;;4.07;3.08;;;19.80;99.90;;;;;;4976298;28;20337;-71
2023/08/17 06:48:11;;;;;;;4.38;3.22;;;19.80;99.90;;;;;;4941240;28;20134;-71
2023/08/17 06:50:57;;;;;;;3.80;2.92;;;19.80;99.90;;;;;;4979613;28;20084;-71
2023/08/17 06:53:43;;;;;;;3.75;2.70;;;19.80;99.90;;;;;;4971985;28;20153;-72
2023/08/17 06:56:29;;;;;;;4.78;3.58;;;19.80;99.90;;;;;;4986636;28;20055;-71
2023/08/17 06:59:15;;;;;;;3.17;2.70;;;19.80;99.90;;;;;;4943623;28;20125;-70
2023/08/17 07:02:01;;;;;;;3.20;2.88;;;19.80;99.90;;;;;;4965767;28;20046;-71
2023/08/17 07:04:47;;;;;;;3.92;3.00;;;19.80;99.90;;;;;;4962211;28;20060;-72
2023/08/17 07:07:33;;;;;;;4.90;3.58;;;19.80;99.90;;;;;;4945167;28;20043;-71
2023/08/17 07:10:19;;;;;;;4.45;3.20;;;19.80;99.90;;;;;;4968876;28;20038;-71
2023/08/17 07:13:06;;;;;;;6.38;3.40;;;19.80;99.90;;;;;;4972239;28;20046;-71
2023/08/17 07:15:52;;;;;;;7.40;4.18;;;19.80;99.90;;;;;;4974793;28;20074;-71
2023/08/17 07:18:37;;;;;;;5.78;3.47;;;19.80;99.90;;;;;;4987334;28;20046;-71
2023/08/17 07:21:24;;;;;;;5.57;3.28;;;19.80;99.90;;;;;;4958750;28;20101;-71
2023/08/17 07:24:14;;;;;;;6.28;3.20;;;19.80;99.90;;;;;;4956285;28;20089;-71
2023/08/17 07:27:00;;;;;;;4.35;3.08;;;19.80;99.90;;;;;;4960060;28;20042;-71
2023/08/17 07:29:46;;;;;;;7.18;3.90;;;19.80;99.90;;;;;;4943701;28;20066;-71
2023/08/17 07:32:33;;;;;;;5.82;3.92;;;19.80;99.90;;;;;;4982191;28;20137;-70
2023/08/17 07:35:19;;;;;;;5.35;3.42;;;19.70;99.90;;;;;;4959528;28;20116;-70
2023/08/17 07:38:05;;;;;;;5.75;3.55;;;19.80;99.90;;;;;;4962411;28;20047;-71
2023/08/17 07:40:51;;;;;;;6.50;4.03;;;19.80;99.90;;;;;;4978424;28;20038;-70
2023/08/17 07:43:37;;;;;;;4.93;3.78;;;19.80;99.90;;;;;;4947964;28;20372;-70
2023/08/17 07:46:23;;;;;;;6.57;4.60;;;19.80;99.90;;;;;;4977113;28;20047;-73
2023/08/17 07:49:09;;;;;;;4.20;3.70;;;19.80;99.90;;;;;;4964105;28;20106;-70
2023/08/17 07:51:55;;;;;;;4.35;3.80;;;19.90;99.90;;;;;;4962732;28;20124;-73
2023/08/17 07:54:41;;;;;;;7.15;4.38;;;19.80;99.90;;;;;;4955343;28;20039;-70
2023/08/17 07:57:27;;;;;;;4.68;3.90;;;19.80;99.90;;;;;;4953626;28;20090;-70
2023/08/17 08:00:13;;;;;;;6.70;5.20;;;19.80;99.90;;;;;;4968464;28;20043;-70
2023/08/17 08:02:59;;;;;;;7.57;6.57;;;19.80;99.90;;;;;;4930896;28;20038;-70
2023/08/17 08:05:45;;;;;;;7.95;5.82;;;19.80;99.90;;;;;;4969571;28;20439;-71
2023/08/17 08:08:31;;;;;;;15.88;6.18;;;19.90;99.90;;;;;;4960951;28;20054;-71
2023/08/17 08:11:17;;;;;;;16.38;6.38;;;19.80;99.90;;;;;;4975612;28;20054;-70
2023/08/17 08:14:04;;;;;;;6.35;4.93;;;19.90;99.90;;;;;;4966853;28;20113;-70
2023/08/17 08:16:50;;;;;;;8.18;5.38;;;20.00;99.90;;;;;;4952467;28;20074;-70
2023/08/17 08:19:36;;;;;;;5.80;4.60;;;20.00;99.90;;;;;;4970606;28;20530;-70
2023/08/17 08:22:22;;;;;;;5.60;4.70;;;20.00;99.90;;;;;;4942737;28;20101;-70
2023/08/17 08:25:08;;;;;;;4.82;4.05;;;20.10;99.90;;;;;;4962228;28;20047;-70
2023/08/17 08:27:54;;;;;;;5.35;4.85;;;20.10;99.90;;;;;;4980880;28;20490;-70
2023/08/17 08:30:40;;;;;;;10.00;4.03;;;20.20;99.90;;;;;;4977342;28;20074;-70
2023/08/17 08:33:26;;;;;;;5.07;3.30;;;20.20;99.90;;;;;;4978809;28;20043;-70
2023/08/17 08:36:12;;;;;;;3.97;3.40;;;20.20;99.90;;;;;;4953405;28;20369;-71
2023/08/17 08:38:58;;;;;;;5.32;3.08;;;20.20;99.90;;;;;;4953046;28;20506;-71
2023/08/17 08:41:44;;;;;;;3.42;2.58;;;20.30;99.90;;;;;;4949280;28;20047;-71
2023/08/17 08:44:30;;;;;;;2.85;2.50;;;20.30;99.90;;;;;;4959140;28;20158;-71
2023/08/17 08:47:16;;;;;;;5.93;3.20;;;20.30;99.90;;;;;;4950903;29;20085;-71
2023/08/17 08:50:04;;;;;;;11.02;2.88;;;20.30;99.90;;;;;;4937309;28;20566;-71
2023/08/17 08:52:56;;;;;;;11.77;2.88;;;20.30;99.90;;;;;;4958331;28;20388;-71
2023/08/17 08:55:47;;;;;;;5.75;2.50;;;20.30;99.90;;;;;;4952006;28;20035;-71
2023/08/17 08:58:33;;;;;;;3.30;1.50;;;20.40;99.90;;;;;;4961073;28;20129;-71
2023/08/17 09:01:19;;;;;;;4.63;2.17;;;20.30;99.90;;;;;;4935283;29;20035;-71
2023/08/17 09:04:05;;;;;;;3.85;2.28;;;20.30;99.90;;;;;;4950066;28;20453;-71
2023/08/17 09:06:51;;;;;;;2.25;1.92;;;20.40;99.90;;;;;;4952578;28;20039;-71
2023/08/17 09:09:37;;;;;;;2.28;1.50;;;20.40;99.90;;;;;;4949961;28;20144;-71
2023/08/17 09:12:23;;;;;;;3.22;1.95;;;20.40;99.90;;;;;;4955396;28;20047;-71
2023/08/17 09:15:10;;;;;;;3.25;1.75;;;20.40;99.90;;;;;;4950328;28;20164;-71
2023/08/17 09:17:56;;;;;;;4.10;2.22;;;20.40;99.90;;;;;;4965586;28;20130;-71
2023/08/17 09:20:46;;;;;;;5.15;1.88;;;20.40;99.90;;;;;;4954580;28;20050;-71
2023/08/17 09:23:32;;;;;;;2.47;1.50;;;20.50;99.90;;;;;;4937213;28;20090;-71
2023/08/17 09:26:19;;;;;;;2.03;1.58;;;20.50;99.90;;;;;;4951505;28;20050;-71
2023/08/17 09:29:19;;;;;;;3.05;2.13;;;20.40;99.90;;;;;;4950397;28;20047;-72
2023/08/17 09:32:10;;;;;;;3.00;2.28;;;20.40;99.90;;;;;;4959410;28;20473;-72
2023/08/17 09:34:56;;;;;;;4.57;2.50;;;20.30;99.90;;;;;;4949747;28;20071;-72
2023/08/17 09:37:42;;;;;;;2.28;1.90;;;20.40;99.90;;;;;;4953778;28;20097;-71
2023/08/17 09:40:28;;;;;;;4.68;2.53;;;20.40;99.90;;;;;;4964452;28;20034;-71
2023/08/17 09:43:14;;;;;;;6.32;2.92;;;20.30;99.90;;;;;;4951643;28;20047;-71
2023/08/17 09:46:02;;;;;;;4.70;3.10;;;20.20;99.90;;;;;;4938221;29;20368;-71
2023/08/17 09:48:48;;;;;;;5.40;2.67;;;20.10;99.90;;;;;;4966687;28;20132;-71
2023/08/17 09:51:34;;;;;;;8.20;4.70;;;20.10;99.90;;;;;;4973619;28;20050;-71
2023/08/17 09:54:24;;;;;;;5.13;2.97;;;20.00;99.90;;;;;;4952812;28;20349;-71
2023/08/17 09:57:10;;;;;;;11.85;4.85;;;20.00;99.90;;;;;;4964130;28;20352;-71
2023/08/17 09:59:56;;;;;;;5.43;4.78;;;20.00;99.90;;;;;;4964885;28;20074;-71
2023/08/17 10:02:43;;;;;;;5.57;4.55;;;20.00;99.90;;;;;;4967154;28;20105;-71
2023/08/17 10:05:35;;;;;;;5.03;4.13;;;19.90;99.90;;;;;;4970385;28;20298;-72
2023/08/17 10:08:21;;;;;;;5.53;4.50;;;19.90;99.90;;;;;;4949507;28;20046;-72
2023/08/17 10:11:09;;;;;;;8.27;4.88;;;19.80;99.90;;;;;;4974776;28;20098;-72
2023/08/17 10:14:05;;;;;;;8.35;5.82;;;19.80;99.90;;;;;;4951031;28;20050;-72
2023/08/17 10:16:57;;;;;;;8.38;5.47;;;19.80;99.90;;;;;;4974635;28;20063;-72
2023/08/17 10:19:51;;;;;;;8.45;6.18;;;19.80;99.90;;;;;;4968543;28;20531;-71
2023/08/17 10:22:44;;;;;;;10.60;7.28;;;19.80;99.90;;;;;;4942702;28;20042;-71
2023/08/17 10:25:30;;;;;;;8.40;6.40;;;19.70;99.90;;;;;;4956241;28;20483;-72
2023/08/17 10:28:16;;;;;;;10.13;8.05;;;19.70;99.90;;;;;;4937409;28;20117;-72
2023/08/17 10:31:02;;;;;;;9.85;6.55;;;19.60;99.90;;;;;;4967920;28;20042;-72
2023/08/17 10:33:48;;;;;;;11.10;6.53;;;19.60;99.90;;;;;;4939730;28;20125;-71
2023/08/17 10:36:34;;;;;;;9.90;7.57;;;19.60;99.90;;;;;;4947539;28;20535;-73
2023/08/17 10:39:22;;;;;;;10.13;6.97;;;19.50;99.90;;;;;;4962247;28;20057;-73
2023/08/17 10:42:08;;;;;;;13.43;8.35;;;19.60;99.90;;;;;;4979074;28;20045;-73
2023/08/17 10:44:54;;;;;;;10.43;7.20;;;19.40;99.90;;;;;;4978110;28;20121;-73
2023/08/17 10:47:40;;;;;;;12.10;7.55;;;19.50;99.90;;;;;;4958811;28;20050;-73
2023/08/17 10:50:26;;;;;;;13.15;8.18;;;19.50;99.90;;;;;;4966584;28;20047;-73
2023/08/17 10:53:12;;;;;;;14.82;8.88;;;19.50;99.90;;;;;;4983997;28;20479;-73
2023/08/17 10:55:58;;;;;;;14.77;9.07;;;19.40;99.90;;;;;;4948089;28;20136;-73
2023/08/17 10:58:44;;;;;;;13.65;8.07;;;19.40;99.90;;;;;;4968671;28;20057;-73
2023/08/17 11:01:39;;;;;;;15.50;8.18;;;19.40;99.90;;;;;;4983901;28;20041;-73
2023/08/17 11:04:25;;;;;;;12.57;8.52;;;19.50;99.90;;;;;;4973130;28;20132;-73
2023/08/17 11:07:15;;;;;;;13.38;8.65;;;19.50;99.90;;;;;;4973648;28;20379;-73
2023/08/17 11:10:01;;;;;;;14.75;8.25;;;19.60;99.90;;;;;;4970563;28;20108;-73
2023/08/17 11:12:48;;;;;;;13.60;8.40;;;19.60;99.90;;;;;;4962470;28;20084;-73
2023/08/17 11:15:41;;;;;;;15.30;8.23;;;19.50;99.90;;;;;;4959790;28;20072;-71
2023/08/17 11:18:27;;;;;;;18.25;8.68;;;19.60;99.90;;;;;;4944205;28;20388;-72
2023/08/17 11:21:14;;;;;;;14.68;7.85;;;19.70;99.90;;;;;;4969604;28;20391;-72
2023/08/17 11:24:00;;;;;;;12.75;7.85;;;19.80;99.90;;;;;;4981042;28;20530;-72
2023/08/17 11:26:46;;;;;;;15.68;8.05;;;19.80;99.90;;;;;;4962454;28;20371;-72
2023/08/17 11:29:33;;;;;;;16.33;8.52;;;19.80;99.90;;;;;;4964952;28;20049;-72
2023/08/17 11:32:19;;;;;;;17.67;8.75;;;19.80;99.90;;;;;;4972518;28;20108;-72
2023/08/17 11:35:05;;;;;;;15.48;8.75;;;19.80;99.90;;;;;;4961599;28;20366;-72
2023/08/17 11:37:51;;;;;;;16.63;8.52;;;19.80;99.90;;;;;;4975620;28;20047;-72
2023/08/17 11:40:37;;;;;;;15.10;8.93;;;19.70;99.90;;;;;;4965051;28;20145;-72
2023/08/17 11:43:23;;;;;;;17.25;9.43;;;19.80;99.90;;;;;;4983898;28;20244;-72
2023/08/17 11:46:09;;;;;;;14.52;9.10;;;19.80;99.90;;;;;;4984432;28;20038;-72
2023/08/17 11:48:59;;;;;;;17.00;9.07;;;19.80;99.90;;;;;;4964017;28;20355;-73
2023/08/17 11:51:45;;;;;;;16.38;9.02;;;19.80;99.90;;;;;;4965800;28;20088;-72
2023/08/17 11:54:33;;;;;;;15.60;8.88;;;19.80;99.90;;;;;;4987482;28;20617;-72
2023/08/17 11:57:19;;;;;;;15.85;9.98;;;19.80;99.90;;;;;;4964502;28;20394;-72
2023/08/17 12:00:06;;;;;;;16.60;9.85;;;19.70;99.90;;;;;;4977830;28;20038;-72
2023/08/17 12:02:52;;;;;;;15.60;8.90;;;19.80;99.90;;;;;;4975645;28;21070;-71
2023/08/17 12:05:38;;;;;;;17.13;9.20;;;19.80;99.90;;;;;;4983388;28;20069;-71
2023/08/17 12:08:24;;;;;;;14.00;8.65;;;19.70;99.90;;;;;;4966761;28;20146;-72
2023/08/17 12:11:10;;;;;;;17.48;8.80;;;19.70;99.90;;;;;;4982389;28;20038;-72
2023/08/17 12:13:57;;;;;;;19.58;10.20;;;19.70;99.90;;;;;;4987493;28;20081;-71
2023/08/17 12:16:48;;;;;;;17.02;9.40;;;19.80;99.90;;;;;;4964989;28;20046;-71
2023/08/17 12:19:34;;;;;;;16.75;9.18;;;19.90;99.90;;;;;;4964677;28;20054;-72
2023/08/17 12:22:22;;;;;;;16.77;9.50;;;19.90;99.90;;;;;;4978085;28;20463;-72
2023/08/17 12:25:09;;;;;;;15.60;9.45;;;19.90;99.90;;;;;;4966246;28;20078;-72
2023/08/17 12:27:58;;;;;;;17.42;10.70;;;20.00;99.90;;;;;;4987374;28;20136;-72
2023/08/17 12:30:44;;;;;;;17.27;9.60;;;19.90;99.90;;;;;;4968792;28;20054;-71
2023/08/17 12:33:30;;;;;;;20.48;9.63;;;19.90;99.90;;;;;;4977167;28;20505;-71
2023/08/17 12:36:17;;;;;;;21.15;10.60;;;19.90;99.90;;;;;;4963957;28;20077;-72
2023/08/17 12:39:04;;;;;;;23.65;10.50;;;19.90;99.90;;;;;;4968745;28;20054;-72
2023/08/17 12:41:50;;;;;;;18.25;9.02;;;19.90;99.90;;;;;;4986940;28;20048;-71
2023/08/17 12:44:36;;;;;;;17.83;9.00;;;19.90;99.90;;;;;;4979106;28;20411;-71
2023/08/17 12:47:22;;;;;;;18.40;8.57;;;19.80;99.90;;;;;;4972405;28;20140;-71
2023/08/17 12:50:08;;;;;;;18.80;10.57;;;19.80;99.90;;;;;;4962226;28;20042;-72
2023/08/17 12:52:54;;;;;;;17.98;10.52;;;19.80;99.90;;;;;;4987272;28;20500;-71
2023/08/17 12:55:40;;;;;;;22.27;10.25;;;19.80;99.90;;;;;;4975680;28;20109;-72
2023/08/17 12:58:26;;;;;;;20.15;10.38;;;19.80;99.90;;;;;;4981390;28;20109;-71
2023/08/17 13:01:13;;;;;;;17.45;9.13;;;19.70;99.90;;;;;;4973993;28;20452;-71
2023/08/17 13:03:59;;;;;;;15.00;9.75;;;19.70;99.90;;;;;;4978734;28;20070;-71
2023/08/17 13:06:47;;;;;;;17.98;10.20;;;19.60;99.90;;;;;;4964489;28;20110;-71
2023/08/17 13:09:33;;;;;;;16.98;9.80;;;19.50;99.90;;;;;;4994179;28;20046;-71
2023/08/17 13:12:19;;;;;;;15.25;9.20;;;19.60;99.90;;;;;;4964925;28;20051;-71
2023/08/17 13:15:06;;;;;;;16.63;9.82;;;19.50;99.90;;;;;;4984414;28;20482;-70
2023/08/17 13:17:52;;;;;;;19.05;11.02;;;19.40;99.90;;;;;;4978615;28;20042;-70
2023/08/17 13:20:40;;;;;;;17.65;10.02;;;19.40;99.90;;;;;;4956577;28;20100;-71
2023/08/17 13:23:26;;;;;;;16.75;10.23;;;19.50;99.90;;;;;;4974786;28;20046;-71
2023/08/17 13:26:12;;;;;;;17.10;10.52;;;19.40;99.90;;;;;;4976345;28;20453;-71
2023/08/17 13:28:58;;;;;;;14.45;8.20;;;19.40;99.90;;;;;;4962357;28;20383;-71
2023/08/17 13:31:46;;;;;;;14.77;8.55;;;19.30;99.90;;;;;;4978755;28;20138;-71
2023/08/17 13:34:32;;;;;;;15.43;9.00;;;19.30;99.90;;;;;;4973266;28;20357;-71
2023/08/17 13:37:18;;;;;;;19.88;9.40;;;19.40;99.90;;;;;;4979404;28;20059;-71
2023/08/17 13:40:04;;;;;;;14.85;8.48;;;19.20;99.90;;;;;;4980938;28;20542;-71
2023/08/17 13:42:50;;;;;;;13.68;7.32;;;19.30;99.90;;;;;;4972471;28;20046;-71
2023/08/17 13:45:36;;;;;;;14.32;6.85;;;19.20;99.90;;;;;;4978309;28;20106;-71
2023/08/17 13:48:22;;;;;;;11.13;7.10;;;19.30;99.90;;;;;;4962274;28;20088;-71
2023/08/17 13:51:08;;;;;;;11.48;6.55;;;19.30;99.90;;;;;;4976694;28;20074;-71
2023/08/17 13:53:54;;;;;;;10.48;6.35;;;19.30;99.90;;;;;;4976797;28;20061;-71
2023/08/17 13:56:40;;;;;;;10.50;6.20;;;19.30;99.90;;;;;;4989543;28;20050;-71
2023/08/17 13:59:26;;;;;;;9.30;6.18;;;19.30;99.90;;;;;;4982000;28;20046;-71
2023/08/17 14:02:12;;;;;;;8.77;5.25;;;19.40;99.90;;;;;;4946582;28;20089;-71
2023/08/17 14:04:58;;;;;;;8.73;6.25;;;19.40;99.90;;;;;;4960980;28;20060;-71
2023/08/17 14:07:44;;;;;;;12.57;6.45;;;19.50;99.90;;;;;;4950333;28;20849;-71
2023/08/17 14:10:30;;;;;;;10.73;6.45;;;19.50;99.90;;;;;;4989525;28;20133;-71
2023/08/17 14:13:16;;;;;;;12.45;7.53;;;19.50;99.90;;;;;;4983248;28;20498;-71
2023/08/17 14:16:03;;;;;;;11.98;6.45;;;19.60;99.90;;;;;;4959396;28;20061;-71
2023/08/17 14:18:49;;;;;;;12.95;6.35;;;19.60;99.90;;;;;;4950888;28;20117;-71
2023/08/17 14:21:35;;;;;;;17.85;7.80;;;19.70;99.90;;;;;;4985982;28;20073;-71
2023/08/17 14:24:21;;;;;;;13.00;7.13;;;19.70;99.90;;;;;;4973158;28;20651;-71